createdAt,value
2019-04-28T05:40:02.225Z,15.80
2019-04-28T05:49:12.993Z,16.40
2019-04-28T06:12:20.218Z,17.30
2019-04-28T06:15:00.059Z,17.20
2019-04-28T06:17:50.792Z,17.10
2019-04-28T06:29:26.225Z,16.70
2019-04-28T06:32:02.143Z,16.40
2019-04-28T06:35:08.906Z,16.50
2019-04-28T06:47:01.718Z,17.20
2019-04-28T06:49:32.539Z,17.00
2019-04-28T06:52:07.842Z,16.80
2019-04-28T06:54:41.673Z,16.30
2019-04-28T07:00:07.042Z,16.20
2019-04-28T07:02:41.037Z,16.30
2019-04-28T07:11:37.029Z,16.60
2019-04-28T07:14:06.638Z,16.50
2019-04-28T07:16:38.590Z,16.40
2019-04-28T07:19:07.544Z,16.30
2019-04-28T07:21:43.955Z,16.40
2019-04-28T07:24:12.916Z,16.50
2019-04-28T07:26:41.854Z,16.40
2019-04-28T07:47:07.126Z,16.80
2019-04-28T07:49:36.107Z,16.90
2019-04-28T07:52:24.899Z,16.70
2019-04-28T07:55:09.481Z,16.50
2019-04-28T07:57:40.219Z,16.60
2019-04-28T08:00:12.234Z,16.60
2019-04-28T08:02:46.482Z,16.70
2019-04-28T08:05:20.563Z,16.60
2019-04-28T08:07:49.573Z,16.40
2019-04-28T08:10:18.498Z,16.40
2019-04-28T08:12:49.317Z,16.50
2019-04-28T08:15:20.942Z,16.50
2019-04-28T08:17:50.246Z,16.20
2019-04-28T08:20:23.685Z,16.00
2019-04-28T08:22:52.766Z,16.10
2019-04-28T08:25:21.788Z,16.20
2019-04-28T08:27:50.665Z,16.50
2019-04-28T08:30:22.917Z,16.40
2019-04-28T08:32:55.048Z,16.40
2019-04-28T08:38:15.029Z,16.20
2019-04-28T08:40:51.428Z,16.00
2019-04-28T08:43:20.367Z,16.00
2019-04-28T08:45:49.314Z,16.00
2019-04-28T08:48:23.146Z,16.00
2019-04-28T08:50:53.765Z,16.00
2019-04-28T08:53:26.822Z,16.20
2019-04-28T08:56:06.047Z,16.30
2019-04-28T08:58:35.232Z,16.50
2019-04-28T09:01:04.346Z,16.70
2019-04-28T09:03:37.553Z,16.90
2019-04-28T09:06:08.067Z,17.00
2019-04-28T09:08:49.345Z,17.00
2019-04-28T09:14:25.377Z,16.90
2019-04-28T09:16:53.078Z,16.70
2019-04-28T09:19:27.166Z,16.60
2019-04-28T09:22:05.815Z,16.70
2019-04-28T09:24:34.925Z,16.70
2019-04-28T09:27:22.579Z,16.90
2019-04-28T09:29:52.647Z,17.10
2019-04-28T09:32:42.579Z,17.20
2019-04-28T09:35:14.760Z,17.10
2019-04-28T09:37:37.878Z,17.00
2019-04-28T09:40:13.414Z,17.00
2019-04-28T09:43:03.182Z,17.00
2019-04-28T09:45:37.183Z,16.80
2019-04-28T09:48:09.991Z,16.80
2019-04-28T09:50:42.214Z,16.70
2019-04-28T09:53:17.067Z,16.70
2019-04-28T09:55:49.231Z,16.70
2019-04-28T09:58:21.353Z,16.40
2019-04-28T10:00:53.421Z,15.70
2019-04-28T10:03:25.567Z,15.40
2019-04-28T10:05:54.592Z,15.20
2019-04-28T10:08:27.157Z,15.30
2019-04-28T10:10:57.742Z,15.50
2019-04-28T10:13:37.044Z,16.00
2019-04-28T10:16:06.021Z,16.50
2019-04-28T10:18:48.285Z,17.30
2019-04-28T10:23:55.727Z,17.40
2019-04-28T10:26:27.128Z,16.90
2019-04-28T10:32:11.937Z,16.60
2019-04-28T10:34:55.085Z,17.30
2019-04-28T10:37:23.642Z,17.80
2019-04-28T10:39:54.293Z,18.20
2019-04-28T10:42:25.375Z,18.60
2019-04-28T10:44:54.326Z,18.70
2019-04-28T10:50:15.173Z,19.00
2019-04-28T10:52:47.302Z,19.10
2019-04-28T10:55:23.458Z,19.30
2019-04-28T10:57:52.477Z,19.20
2019-04-28T11:00:23.146Z,19.20
2019-04-28T11:02:59.509Z,19.20
2019-04-28T11:05:32.871Z,19.30
2019-04-28T11:08:03.647Z,19.30
2019-04-28T11:10:36.939Z,19.20
2019-04-28T11:13:07.486Z,19.20
2019-04-28T11:15:44.042Z,19.30
2019-04-28T11:18:17.770Z,19.30
2019-04-28T11:20:48.596Z,19.40
2019-04-28T11:23:23.163Z,19.40
2019-04-28T11:25:52.438Z,19.60
2019-04-28T11:28:39.547Z,19.50
2019-04-28T11:31:15.243Z,19.50
2019-04-28T11:33:47.240Z,19.70
2019-04-28T11:36:19.259Z,19.80
2019-04-28T11:38:53.979Z,19.90
2019-04-28T11:41:26.390Z,20.00
2019-04-28T11:43:56.886Z,20.00
2019-04-28T11:46:29.655Z,20.00
2019-04-28T11:48:59.862Z,20.10
2019-04-28T11:51:28.936Z,20.10
2019-04-28T12:03:19.892Z,20.40
2019-04-28T12:06:10.303Z,20.60
2019-04-28T12:12:13.835Z,20.70
2019-04-28T12:14:26.230Z,20.70
2019-04-28T12:17:08.353Z,20.60
2019-04-28T12:19:44.794Z,20.70
2019-04-28T12:22:13.795Z,20.70
2019-04-28T12:24:44.045Z,20.60
2019-04-28T12:27:13.016Z,20.70
2019-04-28T12:29:42.045Z,20.70
2019-04-28T12:32:11.125Z,20.40
2019-04-28T12:34:40.133Z,19.90
2019-04-28T12:37:09.069Z,19.70
2019-04-28T12:39:37.956Z,19.30
2019-04-28T12:42:07.026Z,19.00
2019-04-28T12:45:00.547Z,18.80
2019-04-28T13:18:54.592Z,17.50
2019-04-28T13:36:56.492Z,16.70
2019-04-28T13:42:23.921Z,16.10
2019-04-28T13:44:55.140Z,16.30
2019-04-28T13:47:24.146Z,16.30
2019-04-28T13:49:54.734Z,16.00
2019-04-28T13:52:23.606Z,15.70
2019-04-28T13:54:54.265Z,15.50
2019-04-28T13:57:23.271Z,15.80
2019-04-28T13:59:59.465Z,16.20
2019-04-28T14:02:43.681Z,16.50
2019-04-28T14:05:37.233Z,16.80
2019-04-28T14:08:06.476Z,17.10
2019-04-28T14:10:35.397Z,17.30
2019-04-28T14:13:04.267Z,17.50
2019-04-28T14:15:38.422Z,17.70
2019-04-28T14:18:09.455Z,17.90
2019-04-28T14:20:38.430Z,18.00
2019-04-28T14:23:14.178Z,18.00
2019-04-28T14:25:46.556Z,18.30
2019-04-28T14:28:17.165Z,18.50
2019-04-28T14:33:45.602Z,18.80
2019-04-28T14:36:15.411Z,18.80
2019-04-28T14:38:46.567Z,18.80
2019-04-28T14:41:20.539Z,18.90
2019-04-28T14:43:49.596Z,18.90
2019-04-28T14:46:20.268Z,18.90
2019-04-28T14:51:29.919Z,18.70
2019-04-28T14:53:59.273Z,18.70
2019-04-28T14:56:28.199Z,18.80
2019-04-28T14:58:58.118Z,18.80
2019-04-28T15:01:28.643Z,18.80
2019-04-28T15:03:59.255Z,18.90
2019-04-28T15:06:29.791Z,18.90
2019-04-28T15:09:02.815Z,18.60
2019-04-28T15:11:33.395Z,18.70
2019-04-28T15:14:02.417Z,18.60
2019-04-28T15:16:31.351Z,18.50
2019-04-28T15:19:00.347Z,18.60
2019-04-28T15:21:29.301Z,18.60
2019-04-28T15:23:59.883Z,18.30
2019-04-28T15:26:30.354Z,18.00
2019-04-28T15:28:59.332Z,18.00
2019-04-28T15:31:28.306Z,18.00
2019-04-28T15:33:57.431Z,18.00
2019-04-28T15:36:26.511Z,18.20
2019-04-28T15:38:55.482Z,18.20
2019-04-28T15:41:25.085Z,18.10
2019-04-28T15:43:54.079Z,18.10
2019-04-28T15:46:23.050Z,17.80
2019-04-28T15:48:51.898Z,17.70
2019-04-28T15:51:20.840Z,17.60
2019-04-28T15:53:50.846Z,17.60
2019-04-28T15:56:30.513Z,17.60
2019-04-28T16:05:46.933Z,17.60
2019-04-28T16:15:26.181Z,17.10
2019-04-28T16:17:55.045Z,17.00
2019-04-28T16:20:29.646Z,16.90
2019-04-28T16:22:57.437Z,16.80
2019-04-28T16:25:26.416Z,16.90
2019-04-28T16:27:56.636Z,17.00
2019-04-28T16:40:32.409Z,16.70
2019-04-28T16:49:30.231Z,16.60
2019-04-28T16:55:29.485Z,16.50
2019-04-28T16:58:36.465Z,16.40
2019-04-28T17:04:25.283Z,16.40
2019-04-28T17:07:00.592Z,16.30
2019-04-28T17:09:29.476Z,16.40
2019-04-28T17:12:18.746Z,16.40
2019-04-28T17:14:47.655Z,16.30
2019-04-28T17:17:16.905Z,16.30
2019-04-28T17:19:45.804Z,16.20
2019-04-28T17:22:14.740Z,16.10
2019-04-28T17:24:43.679Z,16.10
2019-04-28T17:27:12.630Z,16.10
2019-04-28T17:29:41.503Z,16.00
2019-04-28T17:32:10.461Z,16.00
2019-04-28T17:34:39.322Z,16.00
2019-04-28T17:37:08.607Z,16.10
2019-04-28T17:39:37.520Z,16.20
2019-04-28T17:42:07.978Z,16.10
2019-04-28T17:44:36.824Z,16.10
2019-04-28T17:47:05.737Z,16.00
2019-04-28T17:49:36.242Z,16.00
2019-04-28T17:52:07.433Z,16.00
2019-04-28T17:54:40.285Z,16.10
2019-04-28T17:57:09.228Z,16.00
2019-04-28T17:59:38.183Z,15.80
2019-04-28T18:02:08.747Z,15.70
2019-04-28T18:04:42.096Z,15.60
2019-04-28T18:07:12.577Z,15.50
2019-04-28T18:09:41.571Z,15.30
2019-04-28T18:12:10.434Z,15.10
2019-04-28T18:14:40.800Z,15.10
2019-04-28T18:17:29.385Z,15.10
2019-04-28T18:19:58.414Z,15.20
2019-04-28T18:22:27.402Z,15.00
2019-04-28T18:24:56.277Z,15.00
2019-04-28T18:27:27.626Z,15.00
2019-04-28T18:29:57.598Z,15.00
2019-04-28T18:32:28.008Z,14.90
2019-04-28T18:35:07.785Z,14.80
2019-04-28T18:37:55.024Z,14.80
2019-04-28T18:40:41.260Z,14.80
2019-04-28T18:43:22.746Z,14.80
2019-04-28T18:45:53.938Z,14.80
2019-04-28T18:48:23.543Z,14.70
2019-04-28T18:50:52.517Z,14.60
2019-04-28T18:53:53.706Z,14.60
2019-04-28T18:56:40.554Z,14.80
2019-04-28T18:59:27.346Z,14.90
2019-04-28T19:02:15.529Z,14.80
2019-04-28T19:05:05.638Z,14.80
2019-04-28T19:07:42.571Z,14.80
2019-04-28T19:10:13.073Z,14.90
2019-04-28T19:12:43.638Z,14.90
2019-04-28T19:15:14.123Z,15.00
2019-04-28T19:17:53.579Z,15.00
2019-04-28T19:20:25.426Z,15.00
2019-04-28T19:22:56.286Z,15.00
2019-04-28T19:25:25.176Z,15.00
2019-04-28T19:30:30.015Z,15.20
2019-04-28T19:32:58.965Z,15.20
2019-04-28T19:35:27.805Z,15.20
2019-04-28T19:38:00.784Z,15.10
2019-04-28T19:40:29.694Z,15.20
2019-04-28T19:42:59.746Z,15.00
2019-04-28T19:45:29.676Z,14.90
2019-04-28T19:47:59.934Z,14.90
2019-04-28T19:50:28.858Z,14.90
2019-04-28T19:52:57.873Z,15.00
2019-04-28T19:55:33.408Z,15.10
2019-04-28T19:58:08.213Z,15.00
2019-04-28T20:00:41.440Z,14.70
2019-04-28T20:03:10.416Z,14.80
2019-04-28T20:05:43.114Z,14.20
2019-04-28T20:08:18.105Z,13.90
2019-04-28T22:08:20.766Z,14.40
2019-04-28T22:10:56.778Z,14.00
2019-04-28T22:13:28.811Z,13.90
2019-04-28T22:16:00.353Z,13.80
2019-04-28T22:18:35.746Z,13.70
2019-04-28T22:21:15.805Z,13.40
2019-04-28T22:23:47.345Z,13.40
2019-04-28T22:29:25.182Z,13.40
2019-04-28T22:32:05.587Z,13.30
2019-04-28T22:34:39.451Z,13.00
2019-04-28T22:40:27.609Z,13.20
2019-04-28T22:43:20.201Z,13.70
2019-04-28T22:46:30.565Z,13.60
2019-04-28T22:48:54.642Z,13.50
2019-04-28T22:51:08.661Z,13.60
2019-04-28T22:53:38.212Z,14.00
2019-04-28T22:56:13.520Z,14.20
2019-04-28T22:58:45.188Z,14.20
2019-04-28T23:01:21.629Z,14.10
2019-04-28T23:03:53.214Z,14.00
2019-04-28T23:06:22.252Z,14.00
2019-04-28T23:08:53.732Z,13.70
2019-04-28T23:11:22.745Z,13.50
2019-04-28T23:13:51.772Z,13.50
2019-04-28T23:16:20.915Z,13.60
2019-04-28T23:18:50.169Z,13.60
2019-04-28T23:21:37.919Z,13.60
2019-04-28T23:24:07.061Z,13.80
2019-04-28T23:26:36.194Z,13.80
2019-04-28T23:29:06.106Z,13.70
2019-04-28T23:31:35.088Z,13.80
2019-04-28T23:34:04.116Z,13.70
2019-04-28T23:36:33.095Z,13.50
2019-04-28T23:39:02.193Z,13.40
2019-04-28T23:41:35.648Z,13.40
2019-04-28T23:44:04.624Z,13.40
2019-04-28T23:46:51.378Z,13.30
2019-04-28T23:49:20.342Z,13.00
2019-04-28T23:51:53.415Z,12.90
2019-04-28T23:54:22.350Z,12.80
2019-04-28T23:56:51.345Z,12.80
2019-04-28T23:59:20.332Z,12.90
